sensor_id;sensor_type;location;lat;lon;timestamp;P1;durP1;ratioP1;P2;durP2;ratioP2
57561;SDS011;43397;51.530;5.974;2023-05-27T00:00:05;13.95;;;5.55;;
57561;SDS011;43397;51.530;5.974;2023-05-27T00:02:33;9.93;;;4.60;;
57561;SDS011;43397;51.530;5.974;2023-05-27T00:04:58;13.77;;;5.93;;
57561;SDS011;43397;51.530;5.974;2023-05-27T00:07:24;17.77;;;5.80;;
57561;SDS011;43397;51.530;5.974;2023-05-27T00:09:51;16.20;;;7.20;;
57561;SDS011;43397;51.530;5.974;2023-05-27T00:12:17;14.10;;;5.50;;
57561;SDS011;43397;51.530;5.974;2023-05-27T00:14:43;15.50;;;5.55;;
57561;SDS011;43397;51.530;5.974;2023-05-27T00:17:09;12.40;;;5.43;;
57561;SDS011;43397;51.530;5.974;2023-05-27T00:19:35;14.15;;;5.40;;
57561;SDS011;43397;51.530;5.974;2023-05-27T00:22:01;15.82;;;5.57;;
57561;SDS011;43397;51.530;5.974;2023-05-27T00:24:26;16.73;;;5.43;;
57561;SDS011;43397;51.530;5.974;2023-05-27T00:26:53;15.57;;;5.93;;
57561;SDS011;43397;51.530;5.974;2023-05-27T00:29:19;12.98;;;5.50;;
57561;SDS011;43397;51.530;5.974;2023-05-27T00:31:45;18.52;;;5.90;;
57561;SDS011;43397;51.530;5.974;2023-05-27T00:34:10;17.98;;;5.72;;
57561;SDS011;43397;51.530;5.974;2023-05-27T00:36:36;19.55;;;6.85;;
57561;SDS011;43397;51.530;5.974;2023-05-27T00:39:02;14.98;;;6.38;;
57561;SDS011;43397;51.530;5.974;2023-05-27T00:41:28;20.35;;;7.07;;
57561;SDS011;43397;51.530;5.974;2023-05-27T00:43:55;15.25;;;5.80;;
57561;SDS011;43397;51.530;5.974;2023-05-27T00:46:21;13.57;;;4.80;;
57561;SDS011;43397;51.530;5.974;2023-05-27T00:48:47;15.82;;;5.53;;
57561;SDS011;43397;51.530;5.974;2023-05-27T00:51:13;17.65;;;5.47;;
57561;SDS011;43397;51.530;5.974;2023-05-27T00:53:40;13.50;;;5.65;;
57561;SDS011;43397;51.530;5.974;2023-05-27T00:56:07;13.70;;;5.35;;
57561;SDS011;43397;51.530;5.974;2023-05-27T00:58:33;17.35;;;6.25;;
57561;SDS011;43397;51.530;5.974;2023-05-27T01:01:00;16.20;;;5.60;;
57561;SDS011;43397;51.530;5.974;2023-05-27T01:03:26;14.80;;;5.53;;
57561;SDS011;43397;51.530;5.974;2023-05-27T01:05:53;15.93;;;5.90;;
57561;SDS011;43397;51.530;5.974;2023-05-27T01:08:24;15.30;;;5.63;;
57561;SDS011;43397;51.530;5.974;2023-05-27T01:10:58;18.92;;;6.28;;
57561;SDS011;43397;51.530;5.974;2023-05-27T01:13:27;15.05;;;6.32;;
57561;SDS011;43397;51.530;5.974;2023-05-27T01:15:59;17.60;;;5.88;;
57561;SDS011;43397;51.530;5.974;2023-05-27T01:18:27;19.67;;;5.97;;
57561;SDS011;43397;51.530;5.974;2023-05-27T01:20:55;22.20;;;6.22;;
57561;SDS011;43397;51.530;5.974;2023-05-27T01:23:29;17.40;;;6.40;;
57561;SDS011;43397;51.530;5.974;2023-05-27T01:25:54;19.13;;;5.90;;
57561;SDS011;43397;51.530;5.974;2023-05-27T01:28:21;12.93;;;6.28;;
57561;SDS011;43397;51.530;5.974;2023-05-27T01:30:47;13.32;;;6.00;;
57561;SDS011;43397;51.530;5.974;2023-05-27T01:33:15;16.50;;;5.90;;
57561;SDS011;43397;51.530;5.974;2023-05-27T01:35:45;15.25;;;5.95;;
57561;SDS011;43397;51.530;5.974;2023-05-27T01:38:16;11.60;;;5.40;;
57561;SDS011;43397;51.530;5.974;2023-05-27T01:40:44;17.52;;;6.55;;
57561;SDS011;43397;51.530;5.974;2023-05-27T01:43:12;22.88;;;7.43;;
57561;SDS011;43397;51.530;5.974;2023-05-27T01:45:39;18.17;;;6.32;;
57561;SDS011;43397;51.530;5.974;2023-05-27T01:48:06;17.90;;;6.50;;
57561;SDS011;43397;51.530;5.974;2023-05-27T01:50:31;17.15;;;6.05;;
57561;SDS011;43397;51.530;5.974;2023-05-27T01:52:57;17.38;;;6.82;;
57561;SDS011;43397;51.530;5.974;2023-05-27T01:55:23;15.27;;;6.10;;
57561;SDS011;43397;51.530;5.974;2023-05-27T01:57:50;16.67;;;6.07;;
57561;SDS011;43397;51.530;5.974;2023-05-27T02:00:16;17.70;;;6.57;;
57561;SDS011;43397;51.530;5.974;2023-05-27T02:02:42;13.93;;;5.63;;
57561;SDS011;43397;51.530;5.974;2023-05-27T02:05:08;20.67;;;6.18;;
57561;SDS011;43397;51.530;5.974;2023-05-27T02:07:33;13.82;;;6.22;;
57561;SDS011;43397;51.530;5.974;2023-05-27T02:09:59;17.10;;;5.82;;
57561;SDS011;43397;51.530;5.974;2023-05-27T02:12:25;17.90;;;6.38;;
57561;SDS011;43397;51.530;5.974;2023-05-27T02:14:52;15.55;;;6.28;;
57561;SDS011;43397;51.530;5.974;2023-05-27T02:17:17;14.13;;;5.82;;
57561;SDS011;43397;51.530;5.974;2023-05-27T02:19:43;16.45;;;6.35;;
57561;SDS011;43397;51.530;5.974;2023-05-27T02:22:09;19.05;;;6.90;;
57561;SDS011;43397;51.530;5.974;2023-05-27T02:24:34;15.52;;;5.72;;
57561;SDS011;43397;51.530;5.974;2023-05-27T02:27:00;16.58;;;6.43;;
57561;SDS011;43397;51.530;5.974;2023-05-27T02:29:26;16.95;;;6.78;;
57561;SDS011;43397;51.530;5.974;2023-05-27T02:31:53;18.02;;;6.03;;
57561;SDS011;43397;51.530;5.974;2023-05-27T02:34:19;16.70;;;6.70;;
57561;SDS011;43397;51.530;5.974;2023-05-27T02:36:45;15.07;;;6.65;;
57561;SDS011;43397;51.530;5.974;2023-05-27T02:39:10;19.67;;;6.70;;
57561;SDS011;43397;51.530;5.974;2023-05-27T02:41:36;15.63;;;6.28;;
57561;SDS011;43397;51.530;5.974;2023-05-27T02:44:02;21.20;;;6.13;;
57561;SDS011;43397;51.530;5.974;2023-05-27T02:46:27;21.92;;;7.00;;
57561;SDS011;43397;51.530;5.974;2023-05-27T02:48:54;14.32;;;5.95;;
57561;SDS011;43397;51.530;5.974;2023-05-27T02:51:20;19.55;;;6.75;;
57561;SDS011;43397;51.530;5.974;2023-05-27T02:53:46;16.95;;;6.57;;
57561;SDS011;43397;51.530;5.974;2023-05-27T02:56:12;18.35;;;6.63;;
57561;SDS011;43397;51.530;5.974;2023-05-27T02:58:37;14.65;;;6.05;;
57561;SDS011;43397;51.530;5.974;2023-05-27T03:01:03;16.15;;;6.53;;
57561;SDS011;43397;51.530;5.974;2023-05-27T03:03:29;19.35;;;6.78;;
57561;SDS011;43397;51.530;5.974;2023-05-27T03:05:56;23.20;;;6.97;;
57561;SDS011;43397;51.530;5.974;2023-05-27T03:08:22;19.52;;;7.18;;
57561;SDS011;43397;51.530;5.974;2023-05-27T03:10:47;16.27;;;5.85;;
57561;SDS011;43397;51.530;5.974;2023-05-27T03:13:13;20.88;;;8.05;;
57561;SDS011;43397;51.530;5.974;2023-05-27T03:15:39;20.45;;;6.93;;
57561;SDS011;43397;51.530;5.974;2023-05-27T03:18:05;16.50;;;6.68;;
57561;SDS011;43397;51.530;5.974;2023-05-27T03:20:30;16.73;;;6.60;;
57561;SDS011;43397;51.530;5.974;2023-05-27T03:22:57;23.08;;;7.63;;
57561;SDS011;43397;51.530;5.974;2023-05-27T03:25:23;16.88;;;7.13;;
57561;SDS011;43397;51.530;5.974;2023-05-27T03:27:49;17.00;;;7.03;;
57561;SDS011;43397;51.530;5.974;2023-05-27T03:30:14;23.65;;;7.47;;
57561;SDS011;43397;51.530;5.974;2023-05-27T03:32:40;17.92;;;7.35;;
57561;SDS011;43397;51.530;5.974;2023-05-27T03:35:06;16.38;;;7.05;;
57561;SDS011;43397;51.530;5.974;2023-05-27T03:37:32;19.58;;;6.18;;
57561;SDS011;43397;51.530;5.974;2023-05-27T03:39:59;22.00;;;7.60;;
57561;SDS011;43397;51.530;5.974;2023-05-27T03:42:25;19.63;;;6.97;;
57561;SDS011;43397;51.530;5.974;2023-05-27T03:44:51;19.10;;;5.88;;
57561;SDS011;43397;51.530;5.974;2023-05-27T03:47:16;23.92;;;7.90;;
57561;SDS011;43397;51.530;5.974;2023-05-27T03:49:42;18.15;;;6.63;;
57561;SDS011;43397;51.530;5.974;2023-05-27T03:52:07;16.45;;;7.38;;
57561;SDS011;43397;51.530;5.974;2023-05-27T03:54:33;19.30;;;7.13;;
57561;SDS011;43397;51.530;5.974;2023-05-27T03:57:00;14.20;;;5.97;;
57561;SDS011;43397;51.530;5.974;2023-05-27T03:59:26;15.45;;;7.00;;
57561;SDS011;43397;51.530;5.974;2023-05-27T04:01:51;21.10;;;7.95;;
57561;SDS011;43397;51.530;5.974;2023-05-27T04:04:17;20.55;;;6.65;;
57561;SDS011;43397;51.530;5.974;2023-05-27T04:06:43;15.90;;;6.10;;
57561;SDS011;43397;51.530;5.974;2023-05-27T04:09:09;17.40;;;6.82;;
57561;SDS011;43397;51.530;5.974;2023-05-27T04:11:34;20.92;;;7.32;;
57561;SDS011;43397;51.530;5.974;2023-05-27T04:14:01;18.05;;;6.55;;
57561;SDS011;43397;51.530;5.974;2023-05-27T04:16:27;18.40;;;7.72;;
57561;SDS011;43397;51.530;5.974;2023-05-27T04:18:53;14.35;;;6.38;;
57561;SDS011;43397;51.530;5.974;2023-05-27T04:21:18;16.15;;;6.15;;
57561;SDS011;43397;51.530;5.974;2023-05-27T04:23:44;19.45;;;6.97;;
57561;SDS011;43397;51.530;5.974;2023-05-27T04:26:10;14.85;;;6.57;;
57561;SDS011;43397;51.530;5.974;2023-05-27T04:28:35;20.08;;;6.38;;
57561;SDS011;43397;51.530;5.974;2023-05-27T04:31:02;18.42;;;6.80;;
57561;SDS011;43397;51.530;5.974;2023-05-27T04:33:28;24.55;;;7.72;;
57561;SDS011;43397;51.530;5.974;2023-05-27T04:35:54;15.40;;;6.63;;
57561;SDS011;43397;51.530;5.974;2023-05-27T04:38:19;16.48;;;6.90;;
57561;SDS011;43397;51.530;5.974;2023-05-27T04:40:45;14.43;;;6.88;;
57561;SDS011;43397;51.530;5.974;2023-05-27T04:43:11;17.88;;;6.55;;
57561;SDS011;43397;51.530;5.974;2023-05-27T04:45:36;19.75;;;6.07;;
57561;SDS011;43397;51.530;5.974;2023-05-27T04:48:04;15.85;;;6.20;;
57561;SDS011;43397;51.530;5.974;2023-05-27T04:50:29;15.00;;;6.15;;
57561;SDS011;43397;51.530;5.974;2023-05-27T04:52:55;17.13;;;6.22;;
57561;SDS011;43397;51.530;5.974;2023-05-27T04:55:21;23.20;;;6.97;;
57561;SDS011;43397;51.530;5.974;2023-05-27T04:57:46;18.27;;;6.18;;
57561;SDS011;43397;51.530;5.974;2023-05-27T05:00:12;14.80;;;6.07;;
57561;SDS011;43397;51.530;5.974;2023-05-27T05:02:38;22.02;;;6.80;;
57561;SDS011;43397;51.530;5.974;2023-05-27T05:05:06;13.02;;;5.90;;
57561;SDS011;43397;51.530;5.974;2023-05-27T05:07:33;19.52;;;5.85;;
57561;SDS011;43397;51.530;5.974;2023-05-27T05:09:58;19.17;;;7.03;;
57561;SDS011;43397;51.530;5.974;2023-05-27T05:12:24;15.80;;;6.70;;
57561;SDS011;43397;51.530;5.974;2023-05-27T05:14:50;14.40;;;5.63;;
57561;SDS011;43397;51.530;5.974;2023-05-27T05:17:16;17.77;;;6.13;;
57561;SDS011;43397;51.530;5.974;2023-05-27T05:19:42;16.13;;;6.07;;
57561;SDS011;43397;51.530;5.974;2023-05-27T05:22:10;14.70;;;6.63;;
57561;SDS011;43397;51.530;5.974;2023-05-27T05:24:35;13.98;;;5.72;;
57561;SDS011;43397;51.530;5.974;2023-05-27T05:27:01;17.05;;;6.00;;
57561;SDS011;43397;51.530;5.974;2023-05-27T05:29:26;16.02;;;6.47;;
57561;SDS011;43397;51.530;5.974;2023-05-27T05:31:52;13.00;;;5.38;;
57561;SDS011;43397;51.530;5.974;2023-05-27T05:34:18;14.45;;;6.35;;
57561;SDS011;43397;51.530;5.974;2023-05-27T05:36:43;16.73;;;5.68;;
57561;SDS011;43397;51.530;5.974;2023-05-27T05:39:10;15.02;;;6.10;;
57561;SDS011;43397;51.530;5.974;2023-05-27T05:41:36;17.05;;;6.38;;
57561;SDS011;43397;51.530;5.974;2023-05-27T05:44:02;15.20;;;6.05;;
57561;SDS011;43397;51.530;5.974;2023-05-27T05:46:28;14.05;;;6.22;;
57561;SDS011;43397;51.530;5.974;2023-05-27T05:48:53;17.27;;;5.35;;
57561;SDS011;43397;51.530;5.974;2023-05-27T05:51:19;16.95;;;6.22;;
57561;SDS011;43397;51.530;5.974;2023-05-27T05:53:45;14.30;;;5.50;;
57561;SDS011;43397;51.530;5.974;2023-05-27T05:56:12;15.18;;;6.28;;
57561;SDS011;43397;51.530;5.974;2023-05-27T05:58:37;17.20;;;5.80;;
57561;SDS011;43397;51.530;5.974;2023-05-27T06:01:03;13.70;;;5.53;;
57561;SDS011;43397;51.530;5.974;2023-05-27T06:03:30;18.92;;;6.60;;
57561;SDS011;43397;51.530;5.974;2023-05-27T06:05:55;18.67;;;6.47;;
57561;SDS011;43397;51.530;5.974;2023-05-27T06:08:21;17.88;;;6.28;;
57561;SDS011;43397;51.530;5.974;2023-05-27T06:10:47;17.58;;;7.05;;
57561;SDS011;43397;51.530;5.974;2023-05-27T06:13:14;12.38;;;5.20;;
57561;SDS011;43397;51.530;5.974;2023-05-27T06:15:40;15.95;;;6.18;;
57561;SDS011;43397;51.530;5.974;2023-05-27T06:18:05;16.90;;;6.82;;
57561;SDS011;43397;51.530;5.974;2023-05-27T06:20:31;15.65;;;6.07;;
57561;SDS011;43397;51.530;5.974;2023-05-27T06:22:56;19.20;;;6.75;;
57561;SDS011;43397;51.530;5.974;2023-05-27T06:25:22;14.40;;;5.47;;
57561;SDS011;43397;51.530;5.974;2023-05-27T06:27:48;12.40;;;5.40;;
57561;SDS011;43397;51.530;5.974;2023-05-27T06:30:15;18.23;;;6.45;;
57561;SDS011;43397;51.530;5.974;2023-05-27T06:32:40;13.90;;;6.00;;
57561;SDS011;43397;51.530;5.974;2023-05-27T06:35:06;16.00;;;6.03;;
57561;SDS011;43397;51.530;5.974;2023-05-27T06:37:32;18.20;;;6.53;;
57561;SDS011;43397;51.530;5.974;2023-05-27T06:39:58;19.38;;;6.40;;
57561;SDS011;43397;51.530;5.974;2023-05-27T06:42:24;16.77;;;6.57;;
57561;SDS011;43397;51.530;5.974;2023-05-27T06:44:49;16.05;;;6.30;;
57561;SDS011;43397;51.530;5.974;2023-05-27T06:47:16;14.30;;;5.45;;
57561;SDS011;43397;51.530;5.974;2023-05-27T06:49:42;16.95;;;6.13;;
57561;SDS011;43397;51.530;5.974;2023-05-27T06:52:08;15.43;;;6.60;;
57561;SDS011;43397;51.530;5.974;2023-05-27T06:54:33;22.33;;;6.15;;
57561;SDS011;43397;51.530;5.974;2023-05-27T06:56:59;18.65;;;6.95;;
57561;SDS011;43397;51.530;5.974;2023-05-27T06:59:25;19.27;;;7.03;;
57561;SDS011;43397;51.530;5.974;2023-05-27T07:01:50;17.58;;;6.30;;
57561;SDS011;43397;51.530;5.974;2023-05-27T07:04:17;17.02;;;5.93;;
57561;SDS011;43397;51.530;5.974;2023-05-27T07:06:43;16.80;;;6.65;;
57561;SDS011;43397;51.530;5.974;2023-05-27T07:09:09;15.43;;;5.95;;
57561;SDS011;43397;51.530;5.974;2023-05-27T07:11:34;15.57;;;6.45;;
57561;SDS011;43397;51.530;5.974;2023-05-27T07:14:00;16.00;;;6.80;;
57561;SDS011;43397;51.530;5.974;2023-05-27T07:16:26;12.80;;;5.80;;
57561;SDS011;43397;51.530;5.974;2023-05-27T07:18:51;12.25;;;5.72;;
57561;SDS011;43397;51.530;5.974;2023-05-27T07:21:18;19.33;;;6.25;;
57561;SDS011;43397;51.530;5.974;2023-05-27T07:23:44;18.15;;;5.88;;
57561;SDS011;43397;51.530;5.974;2023-05-27T07:26:10;18.40;;;8.05;;
57561;SDS011;43397;51.530;5.974;2023-05-27T07:28:35;14.40;;;6.85;;
57561;SDS011;43397;51.530;5.974;2023-05-27T07:31:01;15.32;;;5.90;;
57561;SDS011;43397;51.530;5.974;2023-05-27T07:33:27;15.88;;;6.20;;
57561;SDS011;43397;51.530;5.974;2023-05-27T07:35:52;13.63;;;5.88;;
57561;SDS011;43397;51.530;5.974;2023-05-27T07:38:19;16.23;;;6.40;;
57561;SDS011;43397;51.530;5.974;2023-05-27T07:40:45;17.83;;;7.35;;
57561;SDS011;43397;51.530;5.974;2023-05-27T07:43:11;14.07;;;6.53;;
57561;SDS011;43397;51.530;5.974;2023-05-27T07:45:36;14.43;;;6.43;;
57561;SDS011;43397;51.530;5.974;2023-05-27T07:48:02;16.48;;;6.00;;
57561;SDS011;43397;51.530;5.974;2023-05-27T07:50:28;16.77;;;6.65;;
57561;SDS011;43397;51.530;5.974;2023-05-27T07:52:53;23.42;;;6.75;;
57561;SDS011;43397;51.530;5.974;2023-05-27T07:55:20;15.07;;;6.00;;
57561;SDS011;43397;51.530;5.974;2023-05-27T07:57:46;13.82;;;6.53;;
57561;SDS011;43397;51.530;5.974;2023-05-27T08:00:12;15.05;;;6.65;;
57561;SDS011;43397;51.530;5.974;2023-05-27T08:02:39;14.15;;;6.25;;
57561;SDS011;43397;51.530;5.974;2023-05-27T08:05:04;15.57;;;6.97;;
57561;SDS011;43397;51.530;5.974;2023-05-27T08:07:30;13.82;;;6.40;;
57561;SDS011;43397;51.530;5.974;2023-05-27T08:09:56;16.33;;;7.40;;
57561;SDS011;43397;51.530;5.974;2023-05-27T08:12:23;13.13;;;6.05;;
57561;SDS011;43397;51.530;5.974;2023-05-27T08:14:49;18.80;;;6.57;;
57561;SDS011;43397;51.530;5.974;2023-05-27T08:17:14;17.08;;;6.50;;
57561;SDS011;43397;51.530;5.974;2023-05-27T08:19:40;14.18;;;6.45;;
57561;SDS011;43397;51.530;5.974;2023-05-27T08:22:06;12.73;;;6.53;;
57561;SDS011;43397;51.530;5.974;2023-05-27T08:24:32;14.80;;;6.80;;
57561;SDS011;43397;51.530;5.974;2023-05-27T08:26:57;17.70;;;6.90;;
57561;SDS011;43397;51.530;5.974;2023-05-27T08:29:24;14.82;;;6.70;;
57561;SDS011;43397;51.530;5.974;2023-05-27T08:31:50;20.40;;;7.32;;
57561;SDS011;43397;51.530;5.974;2023-05-27T08:34:16;17.85;;;6.40;;
57561;SDS011;43397;51.530;5.974;2023-05-27T08:36:41;17.88;;;6.82;;
57561;SDS011;43397;51.530;5.974;2023-05-27T08:39:07;15.20;;;6.05;;
57561;SDS011;43397;51.530;5.974;2023-05-27T08:41:33;16.75;;;6.28;;
57561;SDS011;43397;51.530;5.974;2023-05-27T08:43:59;13.85;;;6.00;;
57561;SDS011;43397;51.530;5.974;2023-05-27T08:46:27;15.88;;;5.95;;
57561;SDS011;43397;51.530;5.974;2023-05-27T08:48:53;17.67;;;6.35;;
57561;SDS011;43397;51.530;5.974;2023-05-27T08:51:20;14.02;;;5.97;;
57561;SDS011;43397;51.530;5.974;2023-05-27T08:53:46;18.85;;;6.43;;
57561;SDS011;43397;51.530;5.974;2023-05-27T08:56:12;12.70;;;6.28;;
57561;SDS011;43397;51.530;5.974;2023-05-27T08:58:40;23.80;;;6.40;;
57561;SDS011;43397;51.530;5.974;2023-05-27T09:01:07;14.13;;;5.60;;
57561;SDS011;43397;51.530;5.974;2023-05-27T09:03:34;16.75;;;6.75;;
57561;SDS011;43397;51.530;5.974;2023-05-27T09:06:00;15.40;;;6.03;;
57561;SDS011;43397;51.530;5.974;2023-05-27T09:08:25;14.13;;;5.55;;
57561;SDS011;43397;51.530;5.974;2023-05-27T09:10:51;15.60;;;5.57;;
57561;SDS011;43397;51.530;5.974;2023-05-27T09:13:24;14.98;;;5.53;;
57561;SDS011;43397;51.530;5.974;2023-05-27T09:15:56;16.67;;;6.35;;
57561;SDS011;43397;51.530;5.974;2023-05-27T09:18:24;13.27;;;5.63;;
57561;SDS011;43397;51.530;5.974;2023-05-27T09:20:54;14.32;;;6.38;;
57561;SDS011;43397;51.530;5.974;2023-05-27T09:23:20;13.27;;;5.93;;
57561;SDS011;43397;51.530;5.974;2023-05-27T09:25:46;14.02;;;5.65;;
57561;SDS011;43397;51.530;5.974;2023-05-27T09:28:12;18.17;;;6.28;;
57561;SDS011;43397;51.530;5.974;2023-05-27T09:30:44;13.40;;;5.82;;
57561;SDS011;43397;51.530;5.974;2023-05-27T09:33:10;15.60;;;5.35;;
57561;SDS011;43397;51.530;5.974;2023-05-27T09:35:37;15.55;;;6.30;;
57561;SDS011;43397;51.530;5.974;2023-05-27T09:38:08;14.60;;;6.45;;
57561;SDS011;43397;51.530;5.974;2023-05-27T09:40:35;12.75;;;5.00;;
57561;SDS011;43397;51.530;5.974;2023-05-27T09:43:01;11.95;;;4.97;;
57561;SDS011;43397;51.530;5.974;2023-05-27T09:45:27;14.50;;;4.40;;
57561;SDS011;43397;51.530;5.974;2023-05-27T09:47:53;16.05;;;6.43;;
57561;SDS011;43397;51.530;5.974;2023-05-27T09:50:19;13.05;;;5.50;;
57561;SDS011;43397;51.530;5.974;2023-05-27T09:52:47;13.70;;;5.40;;
57561;SDS011;43397;51.530;5.974;2023-05-27T09:55:15;22.10;;;6.53;;
57561;SDS011;43397;51.530;5.974;2023-05-27T09:57:41;13.52;;;5.55;;
57561;SDS011;43397;51.530;5.974;2023-05-27T10:00:08;12.70;;;5.57;;
57561;SDS011;43397;51.530;5.974;2023-05-27T10:02:35;17.65;;;5.95;;
57561;SDS011;43397;51.530;5.974;2023-05-27T10:05:02;15.32;;;5.90;;
57561;SDS011;43397;51.530;5.974;2023-05-27T10:07:28;17.63;;;6.43;;
57561;SDS011;43397;51.530;5.974;2023-05-27T10:09:54;14.40;;;5.47;;
57561;SDS011;43397;51.530;5.974;2023-05-27T10:12:21;15.25;;;5.60;;
57561;SDS011;43397;51.530;5.974;2023-05-27T10:14:48;14.57;;;4.72;;
57561;SDS011;43397;51.530;5.974;2023-05-27T10:17:14;16.75;;;5.78;;
57561;SDS011;43397;51.530;5.974;2023-05-27T10:19:53;15.20;;;5.32;;
57561;SDS011;43397;51.530;5.974;2023-05-27T10:22:19;16.02;;;6.03;;
57561;SDS011;43397;51.530;5.974;2023-05-27T10:24:45;13.57;;;4.65;;
57561;SDS011;43397;51.530;5.974;2023-05-27T10:27:11;14.82;;;5.13;;
57561;SDS011;43397;51.530;5.974;2023-05-27T10:29:38;16.75;;;5.50;;
57561;SDS011;43397;51.530;5.974;2023-05-27T10:32:04;13.35;;;5.10;;
57561;SDS011;43397;51.530;5.974;2023-05-27T10:34:33;16.10;;;4.65;;
57561;SDS011;43397;51.530;5.974;2023-05-27T10:37:00;13.05;;;4.80;;
57561;SDS011;43397;51.530;5.974;2023-05-27T10:39:26;13.57;;;5.03;;
57561;SDS011;43397;51.530;5.974;2023-05-27T10:41:52;14.73;;;4.95;;
57561;SDS011;43397;51.530;5.974;2023-05-27T10:44:25;14.05;;;5.10;;
57561;SDS011;43397;51.530;5.974;2023-05-27T10:46:58;16.98;;;5.18;;
57561;SDS011;43397;51.530;5.974;2023-05-27T10:49:25;11.85;;;4.40;;
57561;SDS011;43397;51.530;5.974;2023-05-27T10:51:51;14.77;;;4.50;;
57561;SDS011;43397;51.530;5.974;2023-05-27T10:54:17;13.43;;;4.35;;
57561;SDS011;43397;51.530;5.974;2023-05-27T10:56:49;13.88;;;3.92;;
57561;SDS011;43397;51.530;5.974;2023-05-27T10:59:16;9.88;;;3.97;;
57561;SDS011;43397;51.530;5.974;2023-05-27T11:01:45;12.48;;;4.00;;
57561;SDS011;43397;51.530;5.974;2023-05-27T11:04:17;11.80;;;4.53;;
57561;SDS011;43397;51.530;5.974;2023-05-27T11:06:42;11.13;;;4.13;;
57561;SDS011;43397;51.530;5.974;2023-05-27T11:09:08;13.02;;;4.50;;
57561;SDS011;43397;51.530;5.974;2023-05-27T11:11:34;13.68;;;4.10;;
57561;SDS011;43397;51.530;5.974;2023-05-27T11:13:59;12.32;;;4.40;;
57561;SDS011;43397;51.530;5.974;2023-05-27T11:16:25;11.73;;;4.45;;
57561;SDS011;43397;51.530;5.974;2023-05-27T11:18:51;16.58;;;4.25;;
57561;SDS011;43397;51.530;5.974;2023-05-27T11:21:18;10.35;;;3.90;;
57561;SDS011;43397;51.530;5.974;2023-05-27T11:23:44;11.93;;;4.07;;
57561;SDS011;43397;51.530;5.974;2023-05-27T11:26:11;11.30;;;3.90;;
57561;SDS011;43397;51.530;5.974;2023-05-27T11:28:38;13.15;;;4.15;;
57561;SDS011;43397;51.530;5.974;2023-05-27T11:31:10;12.50;;;3.70;;
57561;SDS011;43397;51.530;5.974;2023-05-27T11:33:39;14.27;;;4.57;;
57561;SDS011;43397;51.530;5.974;2023-05-27T11:36:06;13.80;;;4.70;;
57561;SDS011;43397;51.530;5.974;2023-05-27T11:38:39;14.82;;;4.95;;
57561;SDS011;43397;51.530;5.974;2023-05-27T11:41:11;12.68;;;3.97;;
57561;SDS011;43397;51.530;5.974;2023-05-27T11:43:36;14.02;;;4.68;;
57561;SDS011;43397;51.530;5.974;2023-05-27T11:46:11;10.82;;;4.25;;
57561;SDS011;43397;51.530;5.974;2023-05-27T11:48:36;9.95;;;3.90;;
57561;SDS011;43397;51.530;5.974;2023-05-27T11:51:02;12.13;;;3.60;;
57561;SDS011;43397;51.530;5.974;2023-05-27T11:53:28;9.93;;;3.95;;
57561;SDS011;43397;51.530;5.974;2023-05-27T11:55:55;7.32;;;3.47;;
57561;SDS011;43397;51.530;5.974;2023-05-27T11:58:21;13.52;;;4.47;;
57561;SDS011;43397;51.530;5.974;2023-05-27T12:00:47;16.13;;;4.53;;
57561;SDS011;43397;51.530;5.974;2023-05-27T12:03:12;12.80;;;4.38;;
57561;SDS011;43397;51.530;5.974;2023-05-27T12:05:38;17.65;;;4.93;;
57561;SDS011;43397;51.530;5.974;2023-05-27T12:08:03;13.98;;;4.25;;
57561;SDS011;43397;51.530;5.974;2023-05-27T12:10:29;13.10;;;4.22;;
57561;SDS011;43397;51.530;5.974;2023-05-27T12:13:03;10.60;;;4.05;;
57561;SDS011;43397;51.530;5.974;2023-05-27T12:15:28;13.65;;;4.40;;
57561;SDS011;43397;51.530;5.974;2023-05-27T12:17:54;12.27;;;4.38;;
57561;SDS011;43397;51.530;5.974;2023-05-27T12:20:20;10.75;;;3.92;;
57561;SDS011;43397;51.530;5.974;2023-05-27T12:22:45;13.90;;;4.20;;
57561;SDS011;43397;51.530;5.974;2023-05-27T12:25:11;11.32;;;4.15;;
57561;SDS011;43397;51.530;5.974;2023-05-27T12:27:36;12.55;;;4.50;;
57561;SDS011;43397;51.530;5.974;2023-05-27T12:30:04;15.52;;;4.97;;
57561;SDS011;43397;51.530;5.974;2023-05-27T12:32:31;10.32;;;3.50;;
57561;SDS011;43397;51.530;5.974;2023-05-27T12:34:56;9.93;;;3.63;;
57561;SDS011;43397;51.530;5.974;2023-05-27T12:37:22;11.95;;;4.20;;
57561;SDS011;43397;51.530;5.974;2023-05-27T12:39:48;7.60;;;3.58;;
57561;SDS011;43397;51.530;5.974;2023-05-27T12:42:13;12.63;;;3.80;;
57561;SDS011;43397;51.530;5.974;2023-05-27T12:44:39;11.45;;;4.00;;
57561;SDS011;43397;51.530;5.974;2023-05-27T12:47:06;9.73;;;3.58;;
57561;SDS011;43397;51.530;5.974;2023-05-27T12:49:31;13.90;;;4.45;;
57561;SDS011;43397;51.530;5.974;2023-05-27T12:51:57;12.40;;;4.35;;
57561;SDS011;43397;51.530;5.974;2023-05-27T12:54:23;11.95;;;4.40;;
57561;SDS011;43397;51.530;5.974;2023-05-27T12:56:48;11.32;;;3.83;;
57561;SDS011;43397;51.530;5.974;2023-05-27T12:59:14;13.70;;;4.47;;
57561;SDS011;43397;51.530;5.974;2023-05-27T13:01:40;10.80;;;4.57;;
57561;SDS011;43397;51.530;5.974;2023-05-27T13:04:07;9.30;;;3.78;;
57561;SDS011;43397;51.530;5.974;2023-05-27T13:06:32;11.52;;;4.70;;
57561;SDS011;43397;51.530;5.974;2023-05-27T13:08:58;12.13;;;4.65;;
57561;SDS011;43397;51.530;5.974;2023-05-27T13:11:24;11.45;;;4.68;;
57561;SDS011;43397;51.530;5.974;2023-05-27T13:13:49;12.52;;;4.07;;
57561;SDS011;43397;51.530;5.974;2023-05-27T13:16:15;14.20;;;3.90;;
57561;SDS011;43397;51.530;5.974;2023-05-27T13:18:41;10.98;;;3.80;;
57561;SDS011;43397;51.530;5.974;2023-05-27T13:21:07;10.20;;;3.70;;
57561;SDS011;43397;51.530;5.974;2023-05-27T13:23:33;13.00;;;4.38;;
57561;SDS011;43397;51.530;5.974;2023-05-27T13:25:59;9.93;;;4.03;;
57561;SDS011;43397;51.530;5.974;2023-05-27T13:28:24;13.98;;;4.28;;
57561;SDS011;43397;51.530;5.974;2023-05-27T13:30:50;11.27;;;3.55;;
57561;SDS011;43397;51.530;5.974;2023-05-27T13:33:16;13.35;;;4.28;;
57561;SDS011;43397;51.530;5.974;2023-05-27T13:35:42;10.23;;;4.10;;
57561;SDS011;43397;51.530;5.974;2023-05-27T13:38:09;11.35;;;4.10;;
57561;SDS011;43397;51.530;5.974;2023-05-27T13:40:35;10.30;;;4.38;;
57561;SDS011;43397;51.530;5.974;2023-05-27T13:43:00;9.57;;;3.75;;
57561;SDS011;43397;51.530;5.974;2023-05-27T13:45:26;10.90;;;4.35;;
57561;SDS011;43397;51.530;5.974;2023-05-27T13:47:52;11.35;;;4.43;;
57561;SDS011;43397;51.530;5.974;2023-05-27T13:50:17;13.10;;;4.35;;
57561;SDS011;43397;51.530;5.974;2023-05-27T13:52:43;11.57;;;4.38;;
57561;SDS011;43397;51.530;5.974;2023-05-27T13:55:10;11.15;;;4.55;;
57561;SDS011;43397;51.530;5.974;2023-05-27T13:57:36;10.40;;;4.47;;
57561;SDS011;43397;51.530;5.974;2023-05-27T14:00:02;13.40;;;4.95;;
57561;SDS011;43397;51.530;5.974;2023-05-27T14:02:28;10.20;;;4.15;;
57561;SDS011;43397;51.530;5.974;2023-05-27T14:04:54;10.48;;;4.43;;
57561;SDS011;43397;51.530;5.974;2023-05-27T14:07:19;11.50;;;4.32;;
57561;SDS011;43397;51.530;5.974;2023-05-27T14:09:45;11.32;;;3.92;;
57561;SDS011;43397;51.530;5.974;2023-05-27T14:12:12;7.80;;;3.67;;
57561;SDS011;43397;51.530;5.974;2023-05-27T14:14:38;11.90;;;4.38;;
57561;SDS011;43397;51.530;5.974;2023-05-27T14:17:03;11.63;;;4.47;;
57561;SDS011;43397;51.530;5.974;2023-05-27T14:19:29;12.10;;;4.05;;
57561;SDS011;43397;51.530;5.974;2023-05-27T14:21:55;10.00;;;4.00;;
57561;SDS011;43397;51.530;5.974;2023-05-27T14:24:20;8.60;;;3.67;;
57561;SDS011;43397;51.530;5.974;2023-05-27T14:26:46;9.95;;;4.35;;
57561;SDS011;43397;51.530;5.974;2023-05-27T14:29:13;11.05;;;4.35;;